Time;durP1;ratioP1;P1;durP2;ratioP2;P2;SDS_P1;SDS_P2;PMS_P1;PMS_P2;Temp;Humidity;BMP_temperature;BMP_pressure;BME280_temperature;BME280_humidity;BME280_pressure;Samples;Min_cycle;Max_cycle;Signal;HPM_P1;HPM_P2
2023/09/08 00:00:01;;;;;;;0.20;0.20;;;;;;;;;;6255386;22;20102;-87
2023/09/08 00:02:27;;;;;;;0.20;0.20;;;;;;;;;;6230410;22;20053;-87
2023/09/08 00:04:53;;;;;;;0.17;0.17;;;;;;;;;;6231637;22;20070;-88
2023/09/08 00:07:19;;;;;;;0.10;0.10;;;;;;;;;;6231018;22;20020;-87
2023/09/08 00:09:45;;;;;;;0.08;0.08;;;;;;;;;;6256601;22;20016;-87
2023/09/08 00:12:11;;;;;;;0.20;0.20;;;;;;;;;;6230644;22;20012;-88
2023/09/08 00:14:38;;;;;;;0.10;0.10;;;;;;;;;;6230958;22;20454;-87
2023/09/08 00:17:04;;;;;;;0.00;0.00;;;;;;;;;;6230501;22;20022;-87
2023/09/08 00:19:30;;;;;;;0.20;0.20;;;;;;;;;;6255729;22;20050;-84
2023/09/08 00:21:58;;;;;;;0.20;0.20;;;;;;;;;;6254307;22;20015;-87
2023/09/08 00:24:24;;;;;;;0.00;0.00;;;;;;;;;;6255962;22;20015;-87
2023/09/08 00:26:50;;;;;;;0.10;0.10;;;;;;;;;;6231635;22;20462;-88
2023/09/08 00:29:16;;;;;;;0.00;0.00;;;;;;;;;;6231098;22;20051;-88
2023/09/08 00:31:42;;;;;;;0.10;0.10;;;;;;;;;;6231179;22;20022;-88
2023/09/08 00:34:08;;;;;;;0.00;0.00;;;;;;;;;;6231270;22;20054;-88
2023/09/08 00:36:34;;;;;;;0.10;0.10;;;;;;;;;;6231727;22;20026;-88
2023/09/08 00:39:00;;;;;;;0.10;0.10;;;;;;;;;;6230251;22;20085;-88
2023/09/08 00:41:26;;;;;;;0.10;0.10;;;;;;;;;;6231853;22;20035;-88
2023/09/08 00:43:52;;;;;;;0.00;0.00;;;;;;;;;;6231600;22;20020;-88
2023/09/08 00:46:19;;;;;;;0.15;0.15;;;;;;;;;;6256316;22;20015;-88
2023/09/08 00:48:45;;;;;;;0.10;0.10;;;;;;;;;;6230963;22;20018;-88
2023/09/08 00:51:11;;;;;;;0.10;0.10;;;;;;;;;;6230001;22;20049;-88
2023/09/08 00:53:37;;;;;;;0.10;0.10;;;;;;;;;;6230075;22;20022;-88
2023/09/08 00:56:03;;;;;;;0.10;0.10;;;;;;;;;;6231691;22;20062;-88
2023/09/08 00:58:30;;;;;;;0.20;0.20;;;;;;;;;;6254815;22;20041;-87
2023/09/08 01:00:58;;;;;;;0.10;0.10;;;;;;;;;;6229103;22;20451;-87
2023/09/08 01:03:24;;;;;;;0.10;0.10;;;;;;;;;;6229513;22;20094;-87
2023/09/08 01:05:50;;;;;;;0.20;0.20;;;;;;;;;;6231599;22;20102;-88
2023/09/08 01:08:17;;;;;;;0.10;0.10;;;;;;;;;;6232695;22;20107;-88
2023/09/08 01:10:43;;;;;;;0.00;0.00;;;;;;;;;;6257759;22;20035;-89
2023/09/08 01:13:09;;;;;;;0.10;0.10;;;;;;;;;;6256882;22;20023;-88
2023/09/08 01:15:36;;;;;;;0.10;0.10;;;;;;;;;;6257138;22;20069;-87
2023/09/08 01:18:02;;;;;;;0.20;0.20;;;;;;;;;;6231731;22;20379;-88
2023/09/08 01:20:30;;;;;;;0.10;0.10;;;;;;;;;;6231909;22;20012;-88
2023/09/08 01:23:20;;;;;;;0.10;0.10;;;;;;;;;;6232132;22;20019;-88
2023/09/08 01:25:59;;;;;;;0.15;0.15;;;;;;;;;;6232812;22;20043;-88
2023/09/08 01:28:25;;;;;;;0.13;0.13;;;;;;;;;;6231600;22;20443;-88
2023/09/08 01:30:52;;;;;;;0.10;0.10;;;;;;;;;;6232612;22;20012;-87
2023/09/08 01:33:18;;;;;;;0.00;0.00;;;;;;;;;;6233300;22;20016;-87
2023/09/08 01:35:44;;;;;;;0.10;0.10;;;;;;;;;;6233002;22;20094;-87
2023/09/08 01:38:10;;;;;;;0.00;0.00;;;;;;;;;;6258435;22;20019;-87
2023/09/08 01:40:36;;;;;;;0.20;0.20;;;;;;;;;;6232181;22;20022;-88
2023/09/08 01:43:02;;;;;;;0.20;0.20;;;;;;;;;;6231930;22;20016;-87
2023/09/08 01:45:28;;;;;;;0.10;0.10;;;;;;;;;;6232527;22;20003;-87
2023/09/08 01:47:54;;;;;;;0.10;0.10;;;;;;;;;;6232507;22;20019;-87
2023/09/08 01:50:22;;;;;;;0.10;0.10;;;;;;;;;;6231749;22;20015;-88
2023/09/08 01:52:48;;;;;;;0.20;0.20;;;;;;;;;;6256259;22;20082;-88
2023/09/08 01:55:16;;;;;;;0.05;0.05;;;;;;;;;;6233185;22;20011;-87
2023/09/08 01:57:42;;;;;;;0.10;0.10;;;;;;;;;;6233071;22;20055;-88
2023/09/08 02:00:08;;;;;;;0.10;0.10;;;;;;;;;;6233080;22;20368;-88
2023/09/08 02:02:34;;;;;;;0.10;0.10;;;;;;;;;;6233241;22;20019;-88
2023/09/08 02:05:00;;;;;;;0.10;0.10;;;;;;;;;;6233277;22;20027;-87
2023/09/08 02:07:26;;;;;;;0.08;0.08;;;;;;;;;;6231682;22;20015;-88
2023/09/08 02:09:52;;;;;;;0.10;0.10;;;;;;;;;;6232941;22;20023;-87
2023/09/08 02:12:18;;;;;;;0.20;0.20;;;;;;;;;;6231792;22;20451;-87
2023/09/08 02:14:44;;;;;;;0.10;0.10;;;;;;;;;;6231816;22;20011;-87
2023/09/08 02:17:10;;;;;;;0.00;0.00;;;;;;;;;;6231495;22;20370;-88
2023/09/08 02:19:36;;;;;;;0.20;0.20;;;;;;;;;;6257515;22;20016;-88
2023/09/08 02:22:02;;;;;;;0.00;0.00;;;;;;;;;;6257044;22;20020;-88
2023/09/08 02:24:28;;;;;;;0.10;0.10;;;;;;;;;;6232779;22;20039;-88
2023/09/08 02:26:55;;;;;;;0.13;0.13;;;;;;;;;;6231835;22;20046;-88
2023/09/08 02:29:21;;;;;;;0.08;0.08;;;;;;;;;;6231287;22;20022;-87
2023/09/08 02:31:47;;;;;;;0.10;0.10;;;;;;;;;;6230890;22;20011;-86
2023/09/08 02:34:13;;;;;;;0.10;0.10;;;;;;;;;;6231666;22;20007;-87
2023/09/08 02:36:39;;;;;;;0.30;0.30;;;;;;;;;;6257836;22;20451;-88
2023/09/08 02:39:05;;;;;;;0.20;0.20;;;;;;;;;;6233062;22;20079;-88
2023/09/08 02:41:55;;;;;;;0.20;0.20;;;;;;;;;;6232573;22;20051;-87
2023/09/08 02:44:26;;;;;;;0.10;0.10;;;;;;;;;;6232818;22;20019;-88
2023/09/08 02:46:52;;;;;;;0.20;0.20;;;;;;;;;;6234019;22;20016;-87
2023/09/08 02:49:18;;;;;;;0.10;0.10;;;;;;;;;;6233628;22;20011;-86
2023/09/08 02:51:44;;;;;;;0.00;0.00;;;;;;;;;;6233042;22;20031;-87
2023/09/08 02:54:10;;;;;;;0.10;0.10;;;;;;;;;;6234722;22;20030;-88
2023/09/08 02:56:36;;;;;;;0.20;0.20;;;;;;;;;;6209924;22;20016;-87
2023/09/08 02:59:02;;;;;;;0.10;0.10;;;;;;;;;;6232975;22;20016;-88
2023/09/08 03:01:29;;;;;;;0.10;0.10;;;;;;;;;;6233611;22;20026;-87
2023/09/08 03:03:55;;;;;;;0.10;0.10;;;;;;;;;;6233423;22;20023;-88
2023/09/08 03:06:21;;;;;;;0.20;0.20;;;;;;;;;;6232817;22;20024;-88
2023/09/08 03:08:47;;;;;;;0.20;0.20;;;;;;;;;;6233205;22;20015;-88
2023/09/08 03:11:13;;;;;;;0.10;0.10;;;;;;;;;;6257273;22;20058;-88
2023/09/08 03:13:39;;;;;;;0.10;0.10;;;;;;;;;;6232622;22;20016;-88
2023/09/08 03:16:06;;;;;;;0.10;0.10;;;;;;;;;;6232251;22;20446;-87
2023/09/08 03:18:32;;;;;;;0.20;0.20;;;;;;;;;;6257207;22;20016;-85
2023/09/08 03:21:00;;;;;;;0.20;0.20;;;;;;;;;;6230619;22;20468;-88
2023/09/08 03:23:26;;;;;;;0.20;0.20;;;;;;;;;;6232668;22;20090;-87
2023/09/08 03:25:52;;;;;;;0.20;0.20;;;;;;;;;;6257694;22;20356;-88
2023/09/08 03:28:18;;;;;;;0.10;0.10;;;;;;;;;;6232458;22;20015;-88
2023/09/08 03:30:45;;;;;;;0.10;0.10;;;;;;;;;;6230817;22;20019;-88
2023/09/08 03:33:11;;;;;;;0.17;0.17;;;;;;;;;;6256042;22;20024;-88
2023/09/08 03:35:37;;;;;;;0.17;0.17;;;;;;;;;;6232014;22;20016;-88
2023/09/08 03:38:03;;;;;;;0.00;0.00;;;;;;;;;;6231148;22;20016;-88
2023/09/08 03:40:29;;;;;;;0.10;0.10;;;;;;;;;;6230781;22;20015;-88
2023/09/08 03:42:55;;;;;;;0.20;0.20;;;;;;;;;;6231045;22;20454;-87
2023/09/08 03:45:21;;;;;;;0.10;0.10;;;;;;;;;;6230709;22;20047;-87
2023/09/08 03:47:47;;;;;;;0.20;0.20;;;;;;;;;;6230450;22;20023;-87
2023/09/08 03:50:14;;;;;;;0.10;0.10;;;;;;;;;;6255592;22;20008;-88
2023/09/08 03:52:40;;;;;;;0.17;0.17;;;;;;;;;;6256185;22;20003;-87
2023/09/08 03:55:06;;;;;;;0.20;0.20;;;;;;;;;;6231815;22;20022;-87
2023/09/08 03:57:32;;;;;;;0.17;0.17;;;;;;;;;;6230881;22;20074;-85
2023/09/08 03:59:58;;;;;;;0.10;0.10;;;;;;;;;;6229370;22;20016;-87
2023/09/08 04:02:24;;;;;;;0.10;0.10;;;;;;;;;;6229995;22;20073;-87
2023/09/08 04:04:50;;;;;;;0.20;0.20;;;;;;;;;;6230564;22;20550;-87
2023/09/08 04:07:16;;;;;;;0.00;0.00;;;;;;;;;;6230989;22;20047;-87
2023/09/08 04:09:42;;;;;;;0.10;0.10;;;;;;;;;;6230285;22;20054;-87
2023/09/08 04:12:10;;;;;;;0.10;0.10;;;;;;;;;;6230684;22;20386;-87
2023/09/08 04:14:36;;;;;;;0.20;0.20;;;;;;;;;;6230906;22;20018;-87
2023/09/08 04:17:03;;;;;;;0.00;0.00;;;;;;;;;;6230533;22;20442;-88
2023/09/08 04:19:29;;;;;;;0.10;0.10;;;;;;;;;;6254465;22;20051;-87
2023/09/08 04:21:55;;;;;;;0.05;0.05;;;;;;;;;;6255529;22;20010;-88
2023/09/08 04:24:21;;;;;;;0.10;0.10;;;;;;;;;;6230693;22;20102;-87
2023/09/08 04:26:51;;;;;;;0.10;0.10;;;;;;;;;;6230416;22;20047;-88
2023/09/08 04:29:17;;;;;;;0.10;0.10;;;;;;;;;;6229390;22;20463;-88
2023/09/08 04:31:43;;;;;;;0.10;0.10;;;;;;;;;;6230607;22;20019;-88
2023/09/08 04:34:09;;;;;;;0.10;0.10;;;;;;;;;;6230476;22;20019;-88
2023/09/08 04:36:35;;;;;;;0.10;0.10;;;;;;;;;;6231562;22;20450;-87
2023/09/08 04:39:01;;;;;;;0.10;0.10;;;;;;;;;;6229848;22;20020;-87
2023/09/08 04:41:27;;;;;;;0.05;0.05;;;;;;;;;;6228855;22;20520;-87
2023/09/08 04:43:53;;;;;;;0.20;0.20;;;;;;;;;;6230725;22;20016;-87
2023/09/08 04:46:19;;;;;;;0.10;0.10;;;;;;;;;;6255665;22;20016;-88
2023/09/08 04:48:45;;;;;;;0.30;0.30;;;;;;;;;;6230307;22;20018;-88
2023/09/08 04:51:11;;;;;;;0.20;0.20;;;;;;;;;;6231095;22;20055;-87
2023/09/08 04:53:37;;;;;;;0.10;0.10;;;;;;;;;;6256610;22;20004;-87
2023/09/08 04:56:03;;;;;;;0.10;0.10;;;;;;;;;;6256707;22;20020;-87
2023/09/08 04:58:29;;;;;;;0.15;0.15;;;;;;;;;;6231021;22;20019;-87
2023/09/08 05:00:55;;;;;;;0.20;0.20;;;;;;;;;;6230681;22;20004;-87
2023/09/08 05:03:21;;;;;;;0.15;0.15;;;;;;;;;;6256102;22;20332;-88
2023/09/08 05:05:47;;;;;;;0.20;0.20;;;;;;;;;;6230481;22;20103;-87
2023/09/08 05:08:13;;;;;;;0.13;0.13;;;;;;;;;;6229557;22;20012;-88
2023/09/08 05:10:39;;;;;;;0.00;0.00;;;;;;;;;;6256210;22;20014;-88
2023/09/08 05:13:05;;;;;;;0.10;0.10;;;;;;;;;;6229499;22;20006;-88
2023/09/08 05:15:52;;;;;;;0.20;0.20;;;;;;;;;;5160852;27;1214455;-88
2023/09/08 05:18:18;;;;;;;0.00;0.00;;;;;;;;;;5143603;27;20064;-88
2023/09/08 05:20:44;;;;;;;0.10;0.10;;;;;;;;;;5143622;27;20022;-88
2023/09/08 05:23:10;;;;;;;0.22;0.22;;;;;;;;;;5160331;27;20039;-88
2023/09/08 05:25:36;;;;;;;0.20;0.20;;;;;;;;;;5159562;27;20034;-87
2023/09/08 05:28:02;;;;;;;0.10;0.10;;;;;;;;;;5142779;27;20057;-87
2023/09/08 05:30:28;;;;;;;0.10;0.10;;;;;;;;;;5143046;27;20049;-87
2023/09/08 05:32:54;;;;;;;0.10;0.10;;;;;;;;;;5143663;27;20038;-88
2023/09/08 05:35:20;;;;;;;0.10;0.10;;;;;;;;;;5143481;27;20042;-88
2023/09/08 05:37:46;;;;;;;0.20;0.20;;;;;;;;;;5143415;27;20035;-88
2023/09/08 05:40:12;;;;;;;0.10;0.10;;;;;;;;;;5161210;27;20042;-88
2023/09/08 05:42:38;;;;;;;0.10;0.10;;;;;;;;;;5142429;27;20042;-85
2023/09/08 05:45:04;;;;;;;0.10;0.10;;;;;;;;;;5142046;27;20175;-85
2023/09/08 05:47:30;;;;;;;0.10;0.10;;;;;;;;;;5141647;27;20045;-86
2023/09/08 05:49:56;;;;;;;0.10;0.10;;;;;;;;;;5142050;27;20042;-86
2023/09/08 05:52:22;;;;;;;0.10;0.10;;;;;;;;;;5142195;27;20039;-86
2023/09/08 05:54:48;;;;;;;0.10;0.10;;;;;;;;;;5159893;27;20046;-86
2023/09/08 05:57:14;;;;;;;0.00;0.00;;;;;;;;;;5142884;27;20082;-85
2023/09/08 05:59:40;;;;;;;0.20;0.20;;;;;;;;;;5142614;27;20022;-86
2023/09/08 06:02:06;;;;;;;0.10;0.10;;;;;;;;;;5141901;27;20022;-85
2023/09/08 06:04:32;;;;;;;0.30;0.30;;;;;;;;;;5140509;27;20065;-86
2023/09/08 06:06:58;;;;;;;0.10;0.10;;;;;;;;;;5141897;27;20030;-86
2023/09/08 06:09:24;;;;;;;0.10;0.10;;;;;;;;;;5159431;27;20073;-85
2023/09/08 06:11:51;;;;;;;0.10;0.10;;;;;;;;;;5142675;27;20038;-85
2023/09/08 06:14:17;;;;;;;0.20;0.20;;;;;;;;;;5159989;27;20452;-85
2023/09/08 06:16:43;;;;;;;0.10;0.10;;;;;;;;;;5142240;27;20038;-85
2023/09/08 06:19:09;;;;;;;0.10;0.10;;;;;;;;;;5159119;27;20031;-86
2023/09/08 06:21:35;;;;;;;0.20;0.20;;;;;;;;;;5159347;27;20030;-84
2023/09/08 06:24:01;;;;;;;0.20;0.20;;;;;;;;;;5142653;27;20043;-84
2023/09/08 06:26:27;;;;;;;0.10;0.10;;;;;;;;;;5149345;27;20108;-85
2023/09/08 06:28:53;;;;;;;0.13;0.13;;;;;;;;;;5145444;27;20077;-85
2023/09/08 06:31:19;;;;;;;0.10;0.10;;;;;;;;;;5126848;27;20526;-85
2023/09/08 06:33:45;;;;;;;0.10;0.10;;;;;;;;;;5128593;27;20039;-84
2023/09/08 06:36:11;;;;;;;0.20;0.20;;;;;;;;;;5128074;27;20483;-88
2023/09/08 06:38:37;;;;;;;0.20;0.20;;;;;;;;;;5127640;27;20058;-87
2023/09/08 06:41:09;;;;;;;0.10;0.10;;;;;;;;;;5127935;27;20095;-88
2023/09/08 06:43:35;;;;;;;0.15;0.15;;;;;;;;;;5144522;27;20035;-87
2023/09/08 06:46:01;;;;;;;0.20;0.20;;;;;;;;;;5143866;27;20603;-88
2023/09/08 06:48:27;;;;;;;0.13;0.13;;;;;;;;;;5143645;27;20034;-88
2023/09/08 06:50:57;;;;;;;0.22;0.22;;;;;;;;;;5127313;27;20081;-87
2023/09/08 06:53:23;;;;;;;0.20;0.20;;;;;;;;;;5127726;27;20096;-88
2023/09/08 06:55:49;;;;;;;0.13;0.13;;;;;;;;;;5144807;27;20045;-88
2023/09/08 06:58:32;;;;;;;0.30;0.30;;;;;;;;;;5144560;27;20034;-88
2023/09/08 07:00:58;;;;;;;0.10;0.10;;;;;;;;;;5144733;27;20045;-88
2023/09/08 07:03:24;;;;;;;0.00;0.00;;;;;;;;;;5129000;27;20053;-87
2023/09/08 07:05:50;;;;;;;0.10;0.10;;;;;;;;;;5146479;27;20030;-88
2023/09/08 07:08:17;;;;;;;0.10;0.10;;;;;;;;;;5144680;27;20047;-87
2023/09/08 07:10:44;;;;;;;0.10;0.10;;;;;;;;;;5128290;27;20034;-86
2023/09/08 07:13:10;;;;;;;0.10;0.10;;;;;;;;;;5145815;27;20034;-87
2023/09/08 07:15:36;;;;;;;0.10;0.10;;;;;;;;;;5128006;27;20146;-87
2023/09/08 07:18:02;;;;;;;0.10;0.10;;;;;;;;;;5144696;27;20047;-88
2023/09/08 07:20:28;;;;;;;0.10;0.10;;;;;;;;;;5145143;27;20126;-85
2023/09/08 07:22:54;;;;;;;0.10;0.10;;;;;;;;;;5145278;27;20103;-88
2023/09/08 07:25:22;;;;;;;0.20;0.20;;;;;;;;;;5127578;27;20015;-87
2023/09/08 07:27:48;;;;;;;0.10;0.10;;;;;;;;;;5145106;27;20039;-88
2023/09/08 07:30:14;;;;;;;0.10;0.10;;;;;;;;;;5125848;27;20041;-86
2023/09/08 07:32:40;;;;;;;0.10;0.10;;;;;;;;;;5126228;27;20601;-88
2023/09/08 07:35:13;;;;;;;0.10;0.10;;;;;;;;;;5127941;27;20074;-88
2023/09/08 07:37:40;;;;;;;0.03;0.03;;;;;;;;;;5126088;27;20038;-87
2023/09/08 07:40:06;;;;;;;0.10;0.10;;;;;;;;;;5127600;27;20067;-86
2023/09/08 07:42:32;;;;;;;0.00;0.00;;;;;;;;;;5144122;27;20046;-88
2023/09/08 07:44:58;;;;;;;0.20;0.20;;;;;;;;;;5127047;27;20042;-88
2023/09/08 07:47:24;;;;;;;0.10;0.10;;;;;;;;;;5144101;27;20063;-87
2023/09/08 07:49:50;;;;;;;0.10;0.10;;;;;;;;;;5143421;27;20039;-87
2023/09/08 07:52:16;;;;;;;0.10;0.10;;;;;;;;;;5125875;27;20088;-87
2023/09/08 07:54:42;;;;;;;0.10;0.10;;;;;;;;;;5143212;27;20086;-88
2023/09/08 07:57:08;;;;;;;0.03;0.03;;;;;;;;;;5126206;27;20034;-88
2023/09/08 07:59:34;;;;;;;0.10;0.10;;;;;;;;;;5126081;27;20038;-85
2023/09/08 08:02:02;;;;;;;0.10;0.10;;;;;;;;;;5143132;27;20708;-89
2023/09/08 08:04:28;;;;;;;0.10;0.10;;;;;;;;;;5143540;27;20100;-88
2023/09/08 08:06:54;;;;;;;0.00;0.00;;;;;;;;;;5126393;27;20038;-87
2023/09/08 08:09:20;;;;;;;0.20;0.20;;;;;;;;;;5144354;27;20080;-87
2023/09/08 08:11:46;;;;;;;0.10;0.10;;;;;;;;;;5142685;27;20042;-85
2023/09/08 08:14:12;;;;;;;0.10;0.10;;;;;;;;;;5125698;27;20092;-87
2023/09/08 08:16:38;;;;;;;0.10;0.10;;;;;;;;;;5125991;27;20035;-88
2023/09/08 08:19:04;;;;;;;0.10;0.10;;;;;;;;;;5126936;27;20039;-88
2023/09/08 08:21:30;;;;;;;0.10;0.10;;;;;;;;;;5123181;27;20035;-88
2023/09/08 08:23:56;;;;;;;0.00;0.00;;;;;;;;;;5106174;27;20047;-88
2023/09/08 08:26:27;;;;;;;0.00;0.00;;;;;;;;;;5120842;27;20457;-85
2023/09/08 08:28:53;;;;;;;0.10;0.10;;;;;;;;;;5125561;27;20130;-84
2023/09/08 08:31:19;;;;;;;0.30;0.30;;;;;;;;;;5125276;27;20471;-85
2023/09/08 08:33:45;;;;;;;0.22;0.22;;;;;;;;;;5125985;27;20122;-84
2023/09/08 08:36:11;;;;;;;0.10;0.10;;;;;;;;;;5125677;27;20403;-85
2023/09/08 08:38:37;;;;;;;0.10;0.10;;;;;;;;;;5142747;27;20121;-85
2023/09/08 08:41:06;;;;;;;0.10;0.10;;;;;;;;;;5141690;27;20087;-85
2023/09/08 08:43:32;;;;;;;1.13;1.08;;;;;;;;;;5142739;27;20038;-84
2023/09/08 08:45:59;;;;;;;0.00;0.00;;;;;;;;;;5125258;27;20086;-85
2023/09/08 08:48:26;;;;;;;0.20;0.20;;;;;;;;;;5142150;27;20014;-85
2023/09/08 08:50:52;;;;;;;0.10;0.10;;;;;;;;;;5125804;27;20546;-86
2023/09/08 08:53:21;;;;;;;0.00;0.00;;;;;;;;;;5123494;27;20071;-84
2023/09/08 08:55:47;;;;;;;0.15;0.15;;;;;;;;;;5141742;27;20118;-85
2023/09/08 08:58:14;;;;;;;0.17;0.17;;;;;;;;;;5141826;27;20042;-85
2023/09/08 09:00:40;;;;;;;0.00;0.00;;;;;;;;;;5142599;27;20043;-85
2023/09/08 09:03:07;;;;;;;0.10;0.10;;;;;;;;;;5125339;27;20039;-85
2023/09/08 09:05:35;;;;;;;0.20;0.20;;;;;;;;;;5125676;27;20046;-85
2023/09/08 09:08:03;;;;;;;0.00;0.00;;;;;;;;;;5121839;27;20070;-85
2023/09/08 09:10:30;;;;;;;0.03;0.03;;;;;;;;;;5121808;27;20991;-85
2023/09/08 09:13:16;;;;;;;0.10;0.10;;;;;;;;;;5105096;28;20078;-85
2023/09/08 09:15:44;;;;;;;0.00;0.00;;;;;;;;;;5121901;28;20046;-85
2023/09/08 09:18:10;;;;;;;0.00;0.00;;;;;;;;;;5104491;28;20064;-84
2023/09/08 09:20:36;;;;;;;0.10;0.10;;;;;;;;;;5104662;28;20118;-86
2023/09/08 09:23:03;;;;;;;1.27;1.05;;;;;;;;;;5105092;28;20066;-86
2023/09/08 09:25:30;;;;;;;0.20;0.20;;;;;;;;;;5105374;28;20046;-85
2023/09/08 09:28:02;;;;;;;0.10;0.10;;;;;;;;;;5122243;28;20051;-85
2023/09/08 09:30:30;;;;;;;0.10;0.10;;;;;;;;;;5104838;28;20050;-85
2023/09/08 09:33:00;;;;;;;0.20;0.20;;;;;;;;;;5120343;28;20145;-85
2023/09/08 09:35:45;;;;;;;0.10;0.10;;;;;;;;;;5120826;28;20491;-85
2023/09/08 09:38:12;;;;;;;0.00;0.00;;;;;;;;;;5104077;28;20449;-85
2023/09/08 09:40:38;;;;;;;0.17;0.17;;;;;;;;;;5104628;28;20043;-85
2023/09/08 09:43:08;;;;;;;0.10;0.10;;;;;;;;;;5121045;28;20046;-85
2023/09/08 09:45:34;;;;;;;0.10;0.10;;;;;;;;;;5121386;28;20034;-85
2023/09/08 09:48:00;;;;;;;0.10;0.10;;;;;;;;;;5104108;28;20047;-86
2023/09/08 09:50:31;;;;;;;0.10;0.10;;;;;;;;;;5121036;28;20035;-85
2023/09/08 09:53:15;;;;;;;0.10;0.10;;;;;;;;;;5104121;28;20043;-85
2023/09/08 09:55:41;;;;;;;;;;;;;;;;;;5103127;28;20039;-85
2023/09/08 09:58:08;;;;;;;0.03;0.03;;;;;;;;;;5104242;28;19915;-85
2023/09/08 10:00:35;;;;;;;0.08;0.08;;;;;;;;;;5104570;27;20058;-85
2023/09/08 10:03:02;;;;;;;0.13;0.13;;;;;;;;;;5108323;27;20152;-88
2023/09/08 10:05:28;;;;;;;0.10;0.10;;;;;;;;;;5108919;27;20051;-88
2023/09/08 10:07:54;;;;;;;0.10;0.10;;;;;;;;;;5108452;27;20049;-88
2023/09/08 10:10:21;;;;;;;1.00;0.95;;;;;;;;;;5108691;27;20053;-87
2023/09/08 10:12:54;;;;;;;0.10;0.10;;;;;;;;;;5107178;27;20088;-87
2023/09/08 10:15:22;;;;;;;0.10;0.10;;;;;;;;;;5106874;27;20039;-89
2023/09/08 10:17:52;;;;;;;0.10;0.10;;;;;;;;;;5107433;27;20042;-88
2023/09/08 10:20:19;;;;;;;0.10;0.10;;;;;;;;;;5108826;27;20042;-89
2023/09/08 10:22:45;;;;;;;0.10;0.10;;;;;;;;;;5125459;27;20035;-89
2023/09/08 10:25:13;;;;;;;0.15;0.15;;;;;;;;;;5108713;27;20049;-88
2023/09/08 10:27:39;;;;;;;0.20;0.20;;;;;;;;;;5108298;27;20043;-89
2023/09/08 10:30:06;;;;;;;0.10;0.10;;;;;;;;;;5125460;27;20147;-89
2023/09/08 10:32:36;;;;;;;0.10;0.10;;;;;;;;;;5108483;27;20026;-88
2023/09/08 10:35:06;;;;;;;0.05;0.05;;;;;;;;;;5108808;27;20427;-89
2023/09/08 10:37:32;;;;;;;0.10;0.10;;;;;;;;;;5125628;27;20035;-88
2023/09/08 10:40:17;;;;;;;0.00;0.00;;;;;;;;;;5123905;27;20039;-88
2023/09/08 10:42:44;;;;;;;0.00;0.00;;;;;;;;;;5107348;27;20485;-88
2023/09/08 10:45:18;;;;;;;0.00;0.00;;;;;;;;;;5106737;27;20113;-88
2023/09/08 10:47:47;;;;;;;0.15;0.15;;;;;;;;;;5106830;27;20039;-88
2023/09/08 10:50:17;;;;;;;0.08;0.08;;;;;;;;;;5107447;27;20078;-89
2023/09/08 10:52:43;;;;;;;0.20;0.20;;;;;;;;;;5106756;27;20088;-88
2023/09/08 10:55:11;;;;;;;0.10;0.10;;;;;;;;;;5107512;27;20050;-88
2023/09/08 10:57:37;;;;;;;0.10;0.10;;;;;;;;;;5124146;27;20027;-88
2023/09/08 11:00:10;;;;;;;0.00;0.00;;;;;;;;;;5106930;27;20042;-88
2023/09/08 11:02:44;;;;;;;0.10;0.10;;;;;;;;;;5106133;27;20026;-87
2023/09/08 11:05:14;;;;;;;0.10;0.10;;;;;;;;;;5123779;27;20027;-88
2023/09/08 11:07:41;;;;;;;0.03;0.03;;;;;;;;;;5123611;27;20122;-88
2023/09/08 11:10:08;;;;;;;0.20;0.20;;;;;;;;;;5107980;27;20074;-88
2023/09/08 11:12:34;;;;;;;0.00;0.00;;;;;;;;;;5106011;27;20092;-88
2023/09/08 11:15:04;;;;;;;0.10;0.10;;;;;;;;;;5105725;27;20495;-89
2023/09/08 11:17:31;;;;;;;0.10;0.10;;;;;;;;;;5106719;27;20475;-88
2023/09/08 11:19:57;;;;;;;0.00;0.00;;;;;;;;;;5107022;27;20074;-88
2023/09/08 11:22:24;;;;;;;0.00;0.00;;;;;;;;;;5106665;27;20042;-88
2023/09/08 11:24:51;;;;;;;0.10;0.10;;;;;;;;;;5107238;27;20043;-88
2023/09/08 11:27:17;;;;;;;0.03;0.03;;;;;;;;;;5122819;27;20518;-87
2023/09/08 11:29:44;;;;;;;0.00;0.00;;;;;;;;;;5106115;27;20031;-88
2023/09/08 11:32:10;;;;;;;0.08;0.08;;;;;;;;;;5106675;27;20458;-88
2023/09/08 11:34:37;;;;;;;0.10;0.10;;;;;;;;;;5122736;27;20035;-88
2023/09/08 11:37:13;;;;;;;0.00;0.00;;;;;;;;;;5106049;27;20031;-88
2023/09/08 11:39:43;;;;;;;0.00;0.00;;;;;;;;;;5125849;27;20042;-88
2023/09/08 11:42:09;;;;;;;0.03;0.03;;;;;;;;;;5126890;27;20081;-89
2023/09/08 11:44:36;;;;;;;0.05;0.05;;;;;;;;;;5126736;27;20043;-89
2023/09/08 11:47:07;;;;;;;0.10;0.10;;;;;;;;;;5123195;27;20050;-88
2023/09/08 11:49:40;;;;;;;0.20;0.20;;;;;;;;;;5112000;27;20078;-88
2023/09/08 11:52:06;;;;;;;0.10;0.10;;;;;;;;;;5116258;27;20035;-89
2023/09/08 11:54:32;;;;;;;0.10;0.10;;;;;;;;;;5117559;27;20078;-88
2023/09/08 11:57:00;;;;;;;0.10;0.10;;;;;;;;;;5143096;27;20039;-88
2023/09/08 11:59:27;;;;;;;0.00;0.00;;;;;;;;;;5125062;27;20039;-88
2023/09/08 12:01:53;;;;;;;0.00;0.00;;;;;;;;;;5127088;27;20057;-86
2023/09/08 12:04:20;;;;;;;0.10;0.10;;;;;;;;;;5123688;27;20380;-89
2023/09/08 12:06:47;;;;;;;0.00;0.00;;;;;;;;;;5125376;27;20042;-88
2023/09/08 12:09:13;;;;;;;0.20;0.20;;;;;;;;;;5125313;27;20031;-88
2023/09/08 12:11:42;;;;;;;0.20;0.20;;;;;;;;;;5105456;27;20058;-88
2023/09/08 12:14:09;;;;;;;0.00;0.00;;;;;;;;;;5123132;27;20111;-88
2023/09/08 12:16:35;;;;;;;0.10;0.10;;;;;;;;;;5118728;27;20039;-88
2023/09/08 12:19:01;;;;;;;0.13;0.13;;;;;;;;;;5121143;27;20114;-88
2023/09/08 12:21:27;;;;;;;0.10;0.10;;;;;;;;;;5120330;27;20406;-88
2023/09/08 12:24:15;;;;;;;0.00;0.00;;;;;;;;;;5119968;27;20384;-88
2023/09/08 12:26:41;;;;;;;0.10;0.10;;;;;;;;;;5111417;27;20049;-89
2023/09/08 12:29:14;;;;;;;0.00;0.00;;;;;;;;;;5122082;27;20406;-89
2023/09/08 12:31:40;;;;;;;0.15;0.15;;;;;;;;;;5122031;27;20049;-88
2023/09/08 12:34:09;;;;;;;0.10;0.10;;;;;;;;;;5119842;27;20043;-88
2023/09/08 12:36:36;;;;;;;0.00;0.00;;;;;;;;;;5111846;27;20038;-89
2023/09/08 12:39:04;;;;;;;0.10;0.10;;;;;;;;;;5121985;27;20068;-89
2023/09/08 12:41:30;;;;;;;0.00;0.00;;;;;;;;;;5104408;27;20108;-89
2023/09/08 12:43:56;;;;;;;0.00;0.00;;;;;;;;;;5104503;27;20047;-89
2023/09/08 12:46:23;;;;;;;0.10;0.10;;;;;;;;;;5120820;27;20516;-89
2023/09/08 12:48:49;;;;;;;0.03;0.03;;;;;;;;;;5117478;27;20045;-89
2023/09/08 12:51:15;;;;;;;0.20;0.20;;;;;;;;;;5117198;27;20035;-88
2023/09/08 12:53:41;;;;;;;0.10;0.10;;;;;;;;;;5117061;27;20507;-89
2023/09/08 12:56:07;;;;;;;0.25;0.25;;;;;;;;;;5140806;27;20038;-89
2023/09/08 12:58:34;;;;;;;0.00;0.00;;;;;;;;;;5143036;27;20034;-90
2023/09/08 13:01:00;;;;;;;0.10;0.10;;;;;;;;;;5141967;27;20031;-90
2023/09/08 13:03:28;;;;;;;0.03;0.03;;;;;;;;;;5124854;27;20118;-90
2023/09/08 13:05:54;;;;;;;0.17;0.17;;;;;;;;;;5142028;27;20034;-89
2023/09/08 13:08:20;;;;;;;0.08;0.08;;;;;;;;;;5142402;27;20057;-90
2023/09/08 13:10:46;;;;;;;0.17;0.17;;;;;;;;;;5125255;27;20045;-90
2023/09/08 13:13:12;;;;;;;0.00;0.00;;;;;;;;;;5141722;27;20074;-90
2023/09/08 13:15:39;;;;;;;0.10;0.10;;;;;;;;;;5125565;27;20088;-90
2023/09/08 13:18:05;;;;;;;0.20;0.20;;;;;;;;;;5142882;27;20399;-90
2023/09/08 13:20:31;;;;;;;0.05;0.05;;;;;;;;;;5143102;27;20119;-89
2023/09/08 13:22:57;;;;;;;0.00;0.00;;;;;;;;;;5125536;27;20039;-90
2023/09/08 13:25:23;;;;;;;0.10;0.10;;;;;;;;;;5126740;27;20049;-90
2023/09/08 13:27:50;;;;;;;0.00;0.00;;;;;;;;;;5125639;27;20035;-88
2023/09/08 13:30:16;;;;;;;0.10;0.10;;;;;;;;;;5142036;27;20107;-90
2023/09/08 13:32:42;;;;;;;0.10;0.10;;;;;;;;;;5141212;27;20064;-89
2023/09/08 13:35:08;;;;;;;0.10;0.10;;;;;;;;;;5124562;27;20134;-90
2023/09/08 13:37:35;;;;;;;0.10;0.10;;;;;;;;;;5130199;27;20047;-89
2023/09/08 13:40:03;;;;;;;0.00;0.00;;;;;;;;;;5147297;27;20042;-90
2023/09/08 13:42:29;;;;;;;0.13;0.13;;;;;;;;;;5129938;27;20035;-89
2023/09/08 13:44:55;;;;;;;0.10;0.10;;;;;;;;;;5146858;27;20372;-89
2023/09/08 13:47:21;;;;;;;0.00;0.00;;;;;;;;;;5146302;27;20038;-88
2023/09/08 13:49:47;;;;;;;0.10;0.10;;;;;;;;;;5128054;27;20083;-89
2023/09/08 13:52:13;;;;;;;0.10;0.10;;;;;;;;;;5129075;27;20055;-89
2023/09/08 13:54:40;;;;;;;0.10;0.10;;;;;;;;;;5129532;27;20042;-89
2023/09/08 13:57:06;;;;;;;0.00;0.00;;;;;;;;;;5128969;27;20034;-90
2023/09/08 13:59:32;;;;;;;0.00;0.00;;;;;;;;;;5146085;27;20107;-89
2023/09/08 14:01:59;;;;;;;0.20;0.20;;;;;;;;;;5128840;27;20123;-90
2023/09/08 14:04:25;;;;;;;0.10;0.10;;;;;;;;;;5130478;27;20042;-89
2023/09/08 14:06:51;;;;;;;0.10;0.10;;;;;;;;;;5128934;27;20022;-89
2023/09/08 14:09:18;;;;;;;0.15;0.15;;;;;;;;;;5128298;27;20042;-89
2023/09/08 14:11:43;;;;;;;0.17;0.17;;;;;;;;;;5127430;27;20042;-89
2023/09/08 14:14:09;;;;;;;0.10;0.10;;;;;;;;;;5126459;27;20041;-90
2023/09/08 14:16:35;;;;;;;0.15;0.15;;;;;;;;;;5128376;27;20495;-90
2023/09/08 14:19:01;;;;;;;0.10;0.10;;;;;;;;;;5128196;27;20042;-90
2023/09/08 14:21:28;;;;;;;0.10;0.10;;;;;;;;;;5128056;27;20050;-89
2023/09/08 14:23:54;;;;;;;0.20;0.20;;;;;;;;;;5127904;27;20031;-89
2023/09/08 14:26:20;;;;;;;0.10;0.10;;;;;;;;;;5128345;27;20039;-89
2023/09/08 14:28:46;;;;;;;0.10;0.10;;;;;;;;;;5127077;27;20081;-89
2023/09/08 14:31:12;;;;;;;0.10;0.10;;;;;;;;;;5127549;27;20031;-89
2023/09/08 14:33:38;;;;;;;0.10;0.10;;;;;;;;;;5127586;27;20038;-89
2023/09/08 14:36:04;;;;;;;0.10;0.10;;;;;;;;;;5145476;27;20125;-89
2023/09/08 14:38:30;;;;;;;0.05;0.05;;;;;;;;;;5127509;27;20061;-89
2023/09/08 14:40:58;;;;;;;0.00;0.00;;;;;;;;;;5145065;27;20030;-89